地図

経路データ

SID SEASON NUMBER BASIN SUBBASIN NAME ISO_TIME NATURE LAT LON WMO_WIND WMO_PRES WMO_AGENCY TRACK_TYPE DIST2LAND LANDFALL IFLAG USA_AGENCY USA_ATCF_ID USA_LAT USA_LON USA_RECORD USA_STATUS USA_WIND USA_PRES USA_SSHS USA_R34_NE USA_R34_SE USA_R34_SW USA_R34_NW USA_R50_NE USA_R50_SE USA_R50_SW USA_R50_NW USA_R64_NE USA_R64_SE USA_R64_SW USA_R64_NW USA_POCI USA_ROCI USA_RMW USA_EYE TOKYO_LAT TOKYO_LON TOKYO_GRADE TOKYO_WIND TOKYO_PRES TOKYO_R50_DIR TOKYO_R50_LONG TOKYO_R50_SHORT TOKYO_R30_DIR TOKYO_R30_LONG TOKYO_R30_SHORT TOKYO_LAND CMA_LAT CMA_LON CMA_CAT CMA_WIND CMA_PRES HKO_LAT HKO_LON HKO_CAT HKO_WIND HKO_PRES NEWDELHI_LAT NEWDELHI_LON NEWDELHI_GRADE NEWDELHI_WIND NEWDELHI_PRES NEWDELHI_CI NEWDELHI_DP NEWDELHI_POCI REUNION_LAT REUNION_LON REUNION_TYPE REUNION_WIND REUNION_PRES REUNION_TNUM REUNION_CI REUNION_RMW REUNION_R34_NE REUNION_R34_SE REUNION_R34_SW REUNION_R34_NW REUNION_R50_NE REUNION_R50_SE REUNION_R50_SW REUNION_R50_NW REUNION_R64_NE REUNION_R64_SE REUNION_R64_SW REUNION_R64_NW BOM_LAT BOM_LON BOM_TYPE BOM_WIND BOM_PRES BOM_TNUM BOM_CI BOM_RMW BOM_R34_NE BOM_R34_SE BOM_R34_SW BOM_R34_NW BOM_R50_NE BOM_R50_SE BOM_R50_SW BOM_R50_NW BOM_R64_NE BOM_R64_SE BOM_R64_SW BOM_R64_NW BOM_ROCI BOM_POCI BOM_EYE BOM_POS_METHOD BOM_PRES_METHOD NADI_LAT NADI_LON NADI_CAT NADI_WIND NADI_PRES WELLINGTON_LAT WELLINGTON_LON WELLINGTON_WIND WELLINGTON_PRES DS824_LAT DS824_LON DS824_STAGE DS824_WIND DS824_PRES TD9636_LAT TD9636_LON TD9636_STAGE TD9636_WIND TD9636_PRES TD9635_LAT TD9635_LON TD9635_WIND TD9635_PRES TD9635_ROCI NEUMANN_LAT NEUMANN_LON NEUMANN_CLASS NEUMANN_WIND NEUMANN_PRES MLC_LAT MLC_LON MLC_CLASS MLC_WIND MLC_PRES USA_GUST BOM_GUST BOM_GUST_PER REUNION_GUST REUNION_GUST_PER USA_SEAHGT USA_SEARAD_NE USA_SEARAD_SE USA_SEARAD_SW USA_SEARAD_NW STORM_SPEED STORM_DIR
1921185N14125 1921 28 WP MM NOT_NAMED 1921-07-04 10:00:00 NR 14.0000 124.600 main 24 15 __________O___ -1 14.0000 124.600 4 4 300
1921185N14125 1921 28 WP MM NOT_NAMED 1921-07-04 12:00:00 NR 14.0621 124.483 main 24 11 __________P___ -1 14.0621 124.483 4 4 297
1921185N14125 1921 28 WP MM NOT_NAMED 1921-07-04 15:00:00 NR 14.1632 124.271 main 22 22 __________P___ -1 14.1632 124.271 4 6 294
1921185N14125 1921 28 WP MM NOT_NAMED 1921-07-04 18:00:00 NR 14.2849 123.962 main 35 39 __________P___ -1 14.2849 123.962 4 8 290
1921185N14125 1921 28 WP MM NOT_NAMED 1921-07-04 21:00:00 NR 14.4393 123.499 main 49 49 __________P___ -1 14.4393 123.499 4 10 289
1921185N14125 1921 28 WP MM NOT_NAMED 1921-07-04 22:00:00 NR 14.5000 123.300 main 54 44 __________O___ -1 14.5000 123.300 4 14 287
1921185N14125 1921 28 WP MM NOT_NAMED 1921-07-05 00:00:00 NR 14.6365 122.829 main 44 39 __________P___ -1 14.6365 122.829 4 16 286
1921185N14125 1921 28 WP MM NOT_NAMED 1921-07-05 03:00:00 NR 14.8721 121.977 main 39 0 __________P___ -1 14.8721 121.977 4 18 286
1921185N14125 1921 28 WP MM NOT_NAMED 1921-07-05 06:00:00 NR 15.1332 121.017 main 0 0 __________P___ -1 15.1332 121.017 4 20 286
1921185N14125 1921 28 WP MM NOT_NAMED 1921-07-05 09:00:00 NR 15.4075 120.025 main 0 0 __________P___ -1 15.4075 120.025 4 20 286
1921185N14125 1921 28 WP MM NOT_NAMED 1921-07-05 10:00:00 NR 15.5000 119.700 main 24 24 __________O___ -1 15.5000 119.700 4 19 287
1921185N14125 1921 28 WP MM NOT_NAMED 1921-07-05 12:00:00 NR 15.6852 119.088 main 72 82 __________P___ -1 15.6852 119.088 4 19 288
1921185N14125 1921 28 WP MM NOT_NAMED 1921-07-05 15:00:00 NR 15.9700 118.175 main 160 171 __________P___ -1 15.9700 118.175 4 18 288
1921185N14125 1921 28 WP MM NOT_NAMED 1921-07-05 18:00:00 NR 16.2516 117.291 main 258 269 __________P___ -1 16.2516 117.291 4 17 288
1921185N14125 1921 28 WP MM NOT_NAMED 1921-07-05 21:00:00 NR 16.5172 116.460 main 346 356 __________P___ -1 16.5172 116.460 4 17 288
1921185N14125 1921 28 WP MM NOT_NAMED 1921-07-05 22:00:00 NR 16.6000 116.200 main 379 379 __________O___ -1 16.6000 116.200 4 15 288
1921185N14125 1921 28 WP MM NOT_NAMED 1921-07-06 00:00:00 NR 16.7521 115.699 main 436 436 __________P___ -1 16.7521 115.699 4 14 288
1921185N14125 1921 28 WP MM NOT_NAMED 1921-07-06 03:00:00 NR 16.9623 115.004 main 512 448 __________P___ -1 16.9623 115.004 4 13 288
1921185N14125 1921 28 WP MM NOT_NAMED 1921-07-06 06:00:00 NR 17.1563 114.370 main 448 387 __________P___ -1 17.1563 114.370 4 12 288
1921185N14125 1921 28 WP MM NOT_NAMED 1921-07-06 09:00:00 NR 17.3401 113.785 main 387 363 __________P___ -1 17.3401 113.785 4 12 288
1921185N14125 1921 28 WP MM NOT_NAMED 1921-07-06 10:00:00 NR 17.4000 113.600 main 363 320 __________O___ -1 17.4000 113.600 4 11 289
1921185N14125 1921 28 WP MM NOT_NAMED 1921-07-06 12:00:00 NR 17.5216 113.235 main 320 262 __________P___ -1 17.5216 113.235 4 11 290
1921185N14125 1921 28 WP MM NOT_NAMED 1921-07-06 15:00:00 NR 17.6983 112.725 main 262 205 __________P___ -1 17.6983 112.725 4 10 290
1921185N14125 1921 28 WP MM NOT_NAMED 1921-07-06 18:00:00 NR 17.8709 112.241 main 205 163 __________P___ -1 17.8709 112.241 4 10 291
1921185N14125 1921 28 WP MM NOT_NAMED 1921-07-06 21:00:00 NR 18.0425 111.762 main 163 139 __________P___ -1 18.0425 111.762 4 10 291
1921185N14125 1921 28 WP MM NOT_NAMED 1921-07-06 22:00:00 NR 18.1000 111.600 main 139 99 __________O___ -1 18.1000 111.600 4 10 289
1921185N14125 1921 28 WP MM NOT_NAMED 1921-07-07 00:00:00 NR 18.2113 111.248 main 99 46 __________P___ -1 18.2113 111.248 4 11 288
1921185N14125 1921 28 WP MM NOT_NAMED 1921-07-07 03:00:00 NR 18.3783 110.713 main 46 0 __________P___ -1 18.3783 110.713 4 11 289
1921185N14125 1921 28 WP MM NOT_NAMED 1921-07-07 06:00:00 NR 18.5508 110.181 main 0 0 __________P___ -1 18.5508 110.181 4 11 290
1921185N14125 1921 28 WP MM NOT_NAMED 1921-07-07 09:00:00 NR 18.7349 109.666 main 0 0 __________P___ -1 18.7349 109.666 4 10 291
1921185N14125 1921 28 WP MM NOT_NAMED 1921-07-07 10:00:00 NR 18.8000 109.500 main 0 0 __________O___ -1 18.8000 109.500 4 10 294
1921185N14125 1921 28 WP MM NOT_NAMED 1921-07-07 12:00:00 NR 18.9366 109.178 main 0 0 __________P___ -1 18.9366 109.178 4 10 296
1921185N14125 1921 28 WP MM NOT_NAMED 1921-07-07 15:00:00 NR 19.1549 108.718 main 0 0 __________P___ -1 19.1549 108.718 4 10 298
1921185N14125 1921 28 WP MM NOT_NAMED 1921-07-07 18:00:00 NR 19.3848 108.275 main 33 33 __________P___ -1 19.3848 108.275 4 9 299
1921185N14125 1921 28 WP MM NOT_NAMED 1921-07-07 21:00:00 NR 19.6209 107.843 main 90 90 __________P___ -1 19.6209 107.843 4 9 300
1921185N14125 1921 28 WP MM NOT_NAMED 1921-07-07 22:00:00 NR 19.7000 107.700 main 104 __________O___ -1 19.7000 107.700 4 9 300

デジタル台風データ・検索

IBTrACS Databaseについて

本データベースは、米国NOAAが公開する1842年以降の世界の熱帯低気圧のベストトラックデータアーカイブInternational Best Track Archive for Climate Stewardship (IBTrACS)を、ウェブで閲覧しやすい形式に変換したものです。

最終更新日:2021-12-06